createdAt,value
2019-05-21T00:00:01.822Z,14.00
2019-05-21T00:02:30.259Z,13.03
2019-05-21T00:04:58.695Z,13.60
2019-05-21T00:07:27.161Z,14.43
2019-05-21T00:09:55.667Z,13.87
2019-05-21T00:12:24.099Z,14.17
2019-05-21T00:14:52.595Z,14.30
2019-05-21T00:17:21.042Z,15.17
2019-05-21T00:19:49.470Z,15.83
2019-05-21T00:22:17.916Z,16.87
2019-05-21T00:24:46.419Z,16.03
2019-05-21T00:27:14.899Z,15.40
2019-05-21T00:30:19.521Z,18.37
2019-05-21T00:33:24.304Z,15.77
2019-05-21T00:36:30.993Z,15.10
2019-05-21T00:39:35.749Z,14.37
2019-05-21T00:42:03.775Z,14.37
2019-05-21T00:44:40.838Z,15.10
2019-05-21T00:47:11.037Z,16.47
2019-05-21T00:49:39.637Z,15.23
2019-05-21T00:52:09.452Z,15.30
2019-05-21T00:54:38.135Z,16.90
2019-05-21T00:57:06.556Z,16.77
2019-05-21T00:59:34.987Z,15.83
2019-05-21T01:02:03.449Z,15.37
2019-05-21T01:04:31.915Z,14.97
2019-05-21T01:07:00.347Z,15.60
2019-05-21T01:09:28.826Z,14.43
2019-05-21T01:11:57.266Z,14.80
2019-05-21T01:14:25.695Z,14.50
2019-05-21T01:16:54.231Z,17.23
2019-05-21T01:19:22.718Z,12.63
2019-05-21T01:21:51.158Z,13.60
2019-05-21T01:24:21.347Z,14.07
2019-05-21T01:26:49.942Z,13.63
2019-05-21T01:29:18.416Z,14.50
2019-05-21T01:31:46.845Z,13.00
2019-05-21T01:34:15.278Z,14.87
2019-05-21T01:36:43.700Z,15.80
2019-05-21T01:39:12.144Z,14.57
2019-05-21T01:41:43.406Z,16.10
2019-05-21T01:44:12.994Z,14.73
2019-05-21T01:46:41.430Z,13.97
2019-05-21T01:49:09.874Z,14.33
2019-05-21T01:51:38.305Z,14.73
2019-05-21T01:54:06.730Z,13.07
2019-05-21T01:56:35.184Z,13.47
2019-05-21T01:59:04.396Z,12.70
2019-05-21T02:01:32.876Z,13.87
2019-05-21T02:04:01.342Z,14.83
2019-05-21T02:06:29.779Z,13.90
2019-05-21T02:08:58.224Z,14.87
2019-05-21T02:11:26.680Z,14.77
2019-05-21T02:13:55.115Z,16.43
2019-05-21T02:16:23.556Z,15.20
2019-05-21T02:18:51.971Z,17.07
2019-05-21T02:21:20.435Z,17.23
2019-05-21T02:23:48.862Z,17.53
2019-05-21T02:26:17.298Z,17.00
2019-05-21T02:28:45.729Z,16.33
2019-05-21T02:31:14.167Z,16.43
2019-05-21T02:33:42.593Z,16.57
2019-05-21T02:36:11.038Z,17.80
2019-05-21T02:38:39.482Z,18.43
2019-05-21T02:41:07.909Z,20.17
2019-05-21T02:43:36.340Z,20.10
2019-05-21T02:46:04.857Z,18.17
2019-05-21T02:48:33.427Z,17.60
2019-05-21T02:51:01.862Z,20.57
2019-05-21T02:53:34.133Z,20.33
2019-05-21T02:56:00.589Z,21.93
2019-05-21T02:58:29.003Z,20.97
2019-05-21T03:00:59.096Z,19.67
2019-05-21T03:03:29.151Z,19.90
2019-05-21T03:06:12.515Z,19.17
2019-05-21T03:08:27.847Z,20.40
2019-05-21T03:10:56.321Z,20.83
2019-05-21T03:13:24.753Z,19.20
2019-05-21T03:15:53.221Z,18.47
2019-05-21T03:18:23.758Z,20.07
2019-05-21T03:20:52.394Z,19.03
2019-05-21T03:23:20.879Z,17.53
2019-05-21T03:25:49.384Z,19.83
2019-05-21T03:28:17.819Z,19.47
2019-05-21T03:30:46.254Z,19.73
2019-05-21T03:33:14.677Z,21.57
2019-05-21T03:35:43.151Z,21.83
2019-05-21T03:38:11.644Z,18.20
2019-05-21T03:40:40.067Z,18.30
2019-05-21T03:43:08.510Z,19.17
2019-05-21T03:45:36.944Z,19.17
2019-05-21T03:48:05.511Z,17.90
2019-05-21T03:50:33.954Z,18.27
2019-05-21T03:53:02.388Z,18.10
2019-05-21T03:55:30.824Z,16.93
2019-05-21T03:57:59.637Z,19.87
2019-05-21T04:00:28.464Z,16.93
2019-05-21T04:02:57.011Z,20.67
2019-05-21T04:05:27.373Z,19.90
2019-05-21T04:07:55.812Z,20.17
2019-05-21T04:10:25.901Z,17.47
2019-05-21T04:13:07.193Z,23.13
2019-05-21T04:15:59.660Z,17.93
2019-05-21T04:18:38.528Z,16.60
2019-05-21T04:21:07.012Z,18.63
2019-05-21T04:23:35.479Z,16.77
2019-05-21T04:26:03.985Z,18.30
2019-05-21T04:28:32.449Z,19.37
2019-05-21T04:31:00.958Z,31.03
2019-05-21T04:33:29.516Z,24.90
2019-05-21T04:35:57.936Z,19.50
2019-05-21T04:38:26.399Z,20.67
2019-05-21T04:40:54.830Z,20.70
2019-05-21T04:43:23.269Z,21.37
2019-05-21T04:45:51.915Z,21.43
2019-05-21T04:48:20.488Z,18.73
2019-05-21T04:50:48.984Z,16.83
2019-05-21T04:53:17.427Z,18.93
2019-05-21T04:55:45.861Z,18.03
2019-05-21T04:58:14.374Z,19.53
2019-05-21T05:00:42.821Z,16.43
2019-05-21T05:03:11.272Z,17.20
2019-05-21T05:05:39.718Z,15.77
2019-05-21T05:08:08.357Z,16.27
2019-05-21T05:10:36.762Z,16.67
2019-05-21T05:13:05.198Z,15.83
2019-05-21T05:15:33.632Z,16.73
2019-05-21T05:18:02.070Z,14.87
2019-05-21T05:20:30.613Z,15.47
2019-05-21T05:22:59.041Z,15.83
2019-05-21T05:25:27.517Z,16.30
2019-05-21T05:27:55.966Z,14.47
2019-05-21T05:30:24.379Z,14.43
2019-05-21T05:32:52.827Z,14.03
2019-05-21T05:35:21.263Z,13.73
2019-05-21T05:37:49.712Z,15.27
2019-05-21T05:40:18.584Z,13.93
2019-05-21T05:42:47.058Z,12.87
2019-05-21T05:45:15.927Z,12.67
2019-05-21T05:47:44.368Z,11.23
2019-05-21T05:50:20.661Z,12.23
2019-05-21T05:52:49.087Z,11.93
2019-05-21T05:55:17.594Z,11.60
2019-05-21T05:57:46.019Z,12.60
2019-05-21T06:00:16.183Z,11.07
2019-05-21T06:02:44.613Z,11.57
2019-05-21T06:05:13.684Z,12.10
2019-05-21T06:07:42.143Z,12.93
2019-05-21T06:10:10.864Z,14.00
2019-05-21T06:12:39.295Z,13.93
2019-05-21T06:15:08.290Z,12.47
2019-05-21T06:17:36.785Z,11.30
2019-05-21T06:20:07.653Z,12.50
2019-05-21T06:22:36.087Z,11.07
2019-05-21T06:25:06.922Z,11.20
2019-05-21T06:27:35.723Z,12.17
2019-05-21T06:30:06.268Z,11.77
2019-05-21T06:32:34.807Z,10.77
2019-05-21T06:35:04.141Z,12.70
2019-05-21T06:37:32.577Z,12.37
2019-05-21T06:40:01.039Z,12.20
2019-05-21T06:42:29.724Z,13.00
2019-05-21T06:44:58.151Z,12.03
2019-05-21T06:47:26.583Z,11.67
2019-05-21T06:49:55.168Z,11.43
2019-05-21T06:52:23.931Z,11.57
2019-05-21T06:54:52.404Z,11.70
2019-05-21T06:57:21.438Z,11.37
2019-05-21T06:59:49.908Z,14.20
2019-05-21T07:02:18.533Z,13.20
2019-05-21T07:04:46.995Z,13.17
2019-05-21T07:07:15.619Z,11.90
2019-05-21T07:09:44.299Z,10.63
2019-05-21T07:12:12.773Z,11.83
2019-05-21T07:14:41.280Z,10.70
2019-05-21T07:17:09.695Z,10.03
2019-05-21T07:19:38.137Z,11.87
2019-05-21T07:22:25.907Z,11.97
2019-05-21T07:24:54.368Z,10.90
2019-05-21T07:27:22.795Z,11.17
2019-05-21T07:29:51.241Z,10.10
2019-05-21T07:32:19.671Z,9.33
2019-05-21T07:34:48.869Z,9.30
2019-05-21T07:37:17.299Z,9.97
2019-05-21T07:39:45.759Z,9.73
2019-05-21T07:42:14.275Z,9.70
2019-05-21T07:44:42.728Z,10.63
2019-05-21T07:47:11.248Z,11.00
2019-05-21T07:49:39.662Z,9.20
2019-05-21T07:52:08.099Z,14.10
2019-05-21T07:54:36.607Z,10.55
2019-05-21T07:57:05.037Z,10.37
2019-05-21T07:59:33.471Z,9.40
2019-05-21T08:02:01.978Z,7.87
2019-05-21T08:04:30.598Z,9.67
2019-05-21T08:06:59.068Z,7.78
2019-05-21T08:09:27.604Z,8.00
2019-05-21T08:11:56.084Z,9.18
2019-05-21T08:14:24.504Z,10.78
2019-05-21T08:16:52.953Z,8.35
2019-05-21T08:19:21.880Z,8.60
2019-05-21T08:21:50.932Z,8.35
2019-05-21T08:24:20.271Z,7.67
2019-05-21T08:26:48.740Z,7.17
2019-05-21T08:29:17.224Z,7.58
2019-05-21T08:31:45.680Z,7.33
2019-05-21T08:34:14.116Z,7.72
2019-05-21T08:36:42.535Z,8.10
2019-05-21T08:39:10.977Z,7.72
2019-05-21T08:41:39.469Z,8.58
2019-05-21T08:44:07.895Z,7.40
2019-05-21T08:46:36.324Z,7.20
2019-05-21T08:49:04.778Z,8.60
2019-05-21T08:51:33.196Z,7.25
2019-05-21T08:54:01.622Z,6.62
2019-05-21T08:56:30.070Z,7.20
2019-05-21T08:58:58.576Z,7.97
2019-05-21T09:01:27.014Z,7.30
2019-05-21T09:03:55.447Z,6.87
2019-05-21T09:06:23.884Z,7.42
2019-05-21T09:08:52.313Z,6.25
2019-05-21T09:11:20.749Z,7.40
2019-05-21T09:13:49.186Z,9.18
2019-05-21T09:16:17.613Z,4.92
2019-05-21T09:18:46.040Z,4.42
2019-05-21T09:21:14.549Z,5.78
2019-05-21T09:23:43.035Z,5.60
2019-05-21T09:26:11.807Z,6.37
2019-05-21T09:28:40.234Z,5.08
2019-05-21T09:31:08.688Z,5.55
2019-05-21T09:33:37.146Z,6.12
2019-05-21T09:36:05.645Z,6.70
2019-05-21T09:38:34.087Z,5.28
2019-05-21T09:41:02.536Z,7.30
2019-05-21T09:43:31.064Z,5.45
2019-05-21T09:45:59.497Z,6.72
2019-05-21T09:48:27.946Z,4.97
2019-05-21T09:50:56.454Z,6.50
2019-05-21T09:53:24.967Z,5.08
2019-05-21T09:55:53.379Z,4.83
2019-05-21T09:58:23.470Z,4.83
2019-05-21T10:01:10.087Z,5.17
2019-05-21T10:03:40.158Z,5.47
2019-05-21T10:06:08.622Z,5.28
2019-05-21T10:08:37.348Z,10.98
2019-05-21T10:11:06.138Z,5.67
2019-05-21T10:13:34.586Z,4.75
2019-05-21T10:16:03.028Z,5.17
2019-05-21T10:18:31.487Z,5.78
2019-05-21T10:20:59.914Z,4.90
2019-05-21T10:23:28.353Z,3.35
2019-05-21T10:25:56.791Z,4.12
2019-05-21T10:28:25.234Z,4.20
2019-05-21T10:30:53.941Z,4.42
2019-05-21T10:33:22.388Z,4.80
2019-05-21T10:35:50.817Z,4.45
2019-05-21T10:38:19.251Z,4.47
2019-05-21T10:40:47.695Z,3.90
2019-05-21T10:43:16.287Z,3.22
2019-05-21T10:45:44.725Z,3.10
2019-05-21T10:48:13.182Z,2.65
2019-05-21T10:50:41.625Z,2.77
2019-05-21T10:53:10.069Z,4.22
2019-05-21T10:55:38.495Z,3.85
2019-05-21T10:58:06.931Z,4.90
2019-05-21T11:00:35.839Z,2.15
2019-05-21T11:03:06.037Z,4.17
2019-05-21T11:05:36.188Z,2.12
2019-05-21T11:08:23.053Z,3.12
2019-05-21T11:10:35.820Z,2.60
2019-05-21T11:13:04.614Z,2.85
2019-05-21T11:15:33.217Z,4.20
2019-05-21T11:18:10.432Z,3.17
2019-05-21T11:20:31.807Z,2.72
2019-05-21T11:23:00.222Z,2.50
2019-05-21T11:25:28.673Z,2.08
2019-05-21T11:27:57.098Z,2.20
2019-05-21T11:30:25.549Z,1.92
2019-05-21T11:32:54.036Z,2.40
2019-05-21T11:35:22.476Z,2.85
2019-05-21T11:37:50.895Z,1.77
2019-05-21T11:40:19.590Z,3.62
2019-05-21T11:42:48.035Z,2.55
2019-05-21T11:45:31.050Z,2.60
2019-05-21T11:47:47.071Z,3.10
2019-05-21T11:50:17.449Z,1.82
2019-05-21T11:52:45.870Z,1.77
2019-05-21T11:55:14.539Z,2.10
2019-05-21T11:57:42.978Z,2.37
2019-05-21T12:00:12.458Z,2.02
2019-05-21T12:02:40.887Z,2.90
2019-05-21T12:05:09.952Z,1.95
2019-05-21T12:07:38.463Z,2.98
2019-05-21T12:10:07.957Z,2.10
2019-05-21T12:12:36.384Z,1.90
2019-05-21T12:15:09.240Z,3.55
2019-05-21T12:17:37.660Z,1.70
2019-05-21T12:20:10.616Z,3.12
2019-05-21T12:22:39.057Z,7.87
2019-05-21T12:25:08.054Z,3.15
2019-05-21T12:27:36.482Z,2.75
2019-05-21T12:30:08.425Z,2.17
2019-05-21T12:32:36.932Z,2.98
2019-05-21T12:35:06.201Z,3.12
2019-05-21T12:37:34.766Z,3.05
2019-05-21T12:40:04.733Z,3.35
2019-05-21T12:42:33.163Z,3.60
2019-05-21T12:45:01.663Z,3.50
2019-05-21T12:47:30.193Z,6.65
2019-05-21T12:49:58.686Z,3.60
2019-05-21T12:52:27.399Z,3.65
2019-05-21T12:54:55.839Z,2.70
2019-05-21T12:57:24.267Z,2.33
2019-05-21T12:59:52.703Z,2.85
2019-05-21T13:02:21.133Z,2.40
2019-05-21T13:04:49.578Z,2.80
2019-05-21T13:07:18.050Z,2.75
2019-05-21T13:09:46.505Z,2.45
2019-05-21T13:12:14.944Z,4.22
2019-05-21T13:14:43.379Z,4.12
2019-05-21T13:17:11.875Z,2.75
2019-05-21T13:19:40.311Z,2.67
2019-05-21T13:22:08.747Z,2.83
2019-05-21T13:24:37.180Z,2.92
2019-05-21T13:27:06.400Z,3.95
2019-05-21T13:29:34.947Z,3.70
2019-05-21T13:32:03.513Z,4.08
2019-05-21T13:34:32.118Z,4.22
2019-05-21T13:37:00.545Z,3.95
2019-05-21T13:39:28.980Z,3.02
2019-05-21T13:41:57.513Z,3.27
2019-05-21T13:44:25.950Z,3.35
2019-05-21T13:46:54.383Z,3.33
2019-05-21T13:49:22.891Z,4.28
2019-05-21T13:51:51.417Z,4.12
2019-05-21T13:54:20.023Z,3.42
2019-05-21T13:56:48.500Z,3.92
2019-05-21T13:59:17.314Z,4.33
2019-05-21T14:01:45.856Z,3.92
2019-05-21T14:04:15.379Z,4.78
2019-05-21T14:06:43.837Z,3.90
2019-05-21T14:09:12.452Z,3.92
2019-05-21T14:11:40.873Z,4.10
2019-05-21T14:14:09.420Z,3.80
2019-05-21T14:16:37.896Z,3.52
2019-05-21T14:19:06.377Z,3.65
2019-05-21T14:21:34.852Z,4.67
2019-05-21T14:24:03.324Z,4.90
2019-05-21T14:26:31.945Z,4.08
2019-05-21T14:29:00.360Z,3.85
2019-05-21T14:31:28.904Z,3.35
2019-05-21T14:33:57.508Z,5.00
2019-05-21T14:36:26.031Z,4.72
2019-05-21T14:38:54.520Z,4.60
2019-05-21T14:41:22.968Z,6.33
2019-05-21T14:43:51.407Z,5.40
2019-05-21T14:46:19.853Z,5.00
2019-05-21T14:48:48.276Z,4.35
2019-05-21T14:51:16.739Z,5.60
2019-05-21T14:53:45.229Z,4.83
2019-05-21T14:56:13.665Z,5.00
2019-05-21T14:58:42.107Z,4.55
2019-05-21T15:01:10.714Z,4.12
2019-05-21T15:03:39.148Z,5.22
2019-05-21T15:06:07.586Z,4.58
2019-05-21T15:08:36.030Z,4.83
2019-05-21T15:11:04.591Z,5.45
2019-05-21T15:13:33.031Z,4.87
2019-05-21T15:16:01.463Z,5.75
2019-05-21T15:18:29.975Z,5.20
2019-05-21T15:21:02.767Z,4.97
2019-05-21T15:23:31.201Z,5.12
2019-05-21T15:25:59.652Z,4.58
2019-05-21T15:28:28.090Z,5.15
2019-05-21T15:30:56.511Z,4.40
2019-05-21T15:33:24.956Z,3.70
2019-05-21T15:35:53.386Z,3.50
2019-05-21T15:38:21.836Z,3.67
2019-05-21T15:41:08.695Z,4.22
2019-05-21T15:43:20.518Z,3.65
2019-05-21T15:45:48.937Z,3.50
2019-05-21T15:48:17.373Z,4.80
2019-05-21T15:50:45.817Z,3.75
2019-05-21T15:53:14.382Z,3.75
2019-05-21T15:55:42.802Z,3.90
2019-05-21T15:58:11.242Z,3.17
2019-05-21T16:00:40.062Z,3.62
2019-05-21T16:03:08.529Z,3.45
2019-05-21T16:05:36.954Z,3.22
2019-05-21T16:08:05.449Z,3.58
2019-05-21T16:10:33.876Z,3.62
2019-05-21T16:13:02.344Z,3.35
2019-05-21T16:15:30.820Z,3.87
2019-05-21T16:17:59.356Z,5.70
2019-05-21T16:20:27.775Z,4.20
2019-05-21T16:22:56.637Z,3.30
2019-05-21T16:25:25.099Z,3.77
2019-05-21T16:27:53.553Z,3.95
2019-05-21T16:30:22.122Z,4.15
2019-05-21T16:32:50.567Z,3.20
2019-05-21T16:35:19.018Z,3.72
2019-05-21T16:37:47.450Z,3.40
2019-05-21T16:40:17.008Z,3.33
2019-05-21T16:42:45.444Z,4.17
2019-05-21T16:45:14.421Z,3.75
2019-05-21T16:47:46.150Z,4.33
2019-05-21T16:50:13.237Z,4.05
2019-05-21T16:52:41.677Z,3.77
2019-05-21T16:55:10.272Z,4.20
2019-05-21T16:57:38.713Z,4.03
2019-05-21T17:00:09.159Z,4.45
2019-05-21T17:02:37.595Z,4.62
2019-05-21T17:05:06.968Z,4.33
2019-05-21T17:07:35.387Z,3.67
2019-05-21T17:10:07.191Z,4.53
2019-05-21T17:12:35.693Z,4.62
2019-05-21T17:15:06.955Z,4.47
2019-05-21T17:17:35.655Z,3.95
2019-05-21T17:20:07.131Z,4.10
2019-05-21T17:22:35.673Z,4.42
2019-05-21T17:25:06.398Z,4.42
2019-05-21T17:27:34.815Z,4.20
2019-05-21T17:30:04.529Z,3.98
2019-05-21T17:32:32.957Z,4.45
2019-05-21T17:35:01.430Z,5.20
2019-05-21T17:37:30.483Z,5.10
2019-05-21T17:39:59.111Z,4.30
2019-05-21T17:42:27.531Z,6.03
2019-05-21T17:44:55.995Z,4.12
2019-05-21T17:47:25.359Z,3.87
2019-05-21T17:49:53.829Z,3.12
2019-05-21T17:52:22.251Z,4.55
2019-05-21T17:54:56.941Z,3.52
2019-05-21T17:57:21.475Z,3.05
2019-05-21T17:59:50.195Z,3.58
2019-05-21T18:02:19.400Z,3.02
2019-05-21T18:04:48.801Z,3.83
2019-05-21T18:07:17.766Z,5.45
2019-05-21T18:09:46.415Z,4.05
2019-05-21T18:12:29.737Z,3.45
2019-05-21T18:14:46.360Z,3.37
2019-05-21T18:17:16.612Z,3.02
2019-05-21T18:19:45.694Z,3.22
2019-05-21T18:22:16.100Z,3.72
2019-05-21T18:24:48.278Z,3.33
2019-05-21T18:27:15.059Z,4.05
2019-05-21T18:29:43.673Z,4.78
2019-05-21T18:32:12.111Z,5.63
2019-05-21T18:34:40.564Z,5.78
2019-05-21T18:37:08.999Z,5.42
2019-05-21T18:39:37.441Z,6.03
2019-05-21T18:42:19.655Z,5.97
2019-05-21T18:44:36.039Z,5.85
2019-05-21T18:47:04.475Z,6.10
2019-05-21T18:49:32.923Z,5.53
2019-05-21T18:52:01.454Z,5.42
2019-05-21T18:54:30.209Z,6.17
2019-05-21T18:56:58.929Z,5.55
2019-05-21T18:59:27.359Z,5.90
2019-05-21T19:01:55.866Z,5.55
2019-05-21T19:04:24.289Z,5.10
2019-05-21T19:06:53.074Z,8.63
2019-05-21T19:09:21.527Z,4.67
2019-05-21T19:11:50.167Z,5.12
2019-05-21T19:14:18.629Z,9.30
2019-05-21T19:16:47.106Z,3.22
2019-05-21T19:19:15.827Z,3.08
2019-05-21T19:21:44.480Z,2.90
2019-05-21T19:24:12.900Z,2.58
2019-05-21T19:26:43.995Z,2.80
2019-05-21T19:29:11.501Z,2.62
2019-05-21T19:31:40.001Z,2.20
2019-05-21T19:34:08.420Z,1.50
2019-05-21T19:36:36.875Z,3.67
2019-05-21T19:39:07.048Z,1.92
2019-05-21T19:41:35.568Z,3.43
2019-05-21T19:44:04.164Z,1.70
2019-05-21T19:46:32.601Z,7.08
2019-05-21T19:49:01.020Z,2.20
2019-05-21T19:51:29.827Z,1.70
2019-05-21T19:53:58.458Z,1.67
2019-05-21T19:56:26.900Z,3.70
2019-05-21T19:58:55.524Z,3.80
2019-05-21T20:01:24.304Z,3.23
2019-05-21T20:03:52.952Z,4.40
2019-05-21T20:06:21.824Z,3.40
2019-05-21T20:08:50.268Z,5.47
2019-05-21T20:11:18.709Z,4.37
2019-05-21T20:13:47.475Z,4.87
2019-05-21T20:16:18.116Z,7.63
2019-05-21T20:18:46.611Z,7.33
2019-05-21T20:21:15.612Z,8.57
2019-05-21T20:23:45.163Z,8.60
2019-05-21T20:26:17.663Z,11.08
2019-05-21T20:28:46.678Z,9.03
2019-05-21T20:31:15.885Z,10.17
2019-05-21T20:33:46.918Z,14.40
2019-05-21T20:36:15.479Z,10.63
2019-05-21T20:38:43.952Z,9.87
2019-05-21T20:41:12.652Z,10.27
2019-05-21T20:43:41.453Z,12.20
2019-05-21T20:46:10.416Z,11.55
2019-05-21T20:48:39.692Z,17.40
2019-05-21T20:51:09.735Z,12.88
2019-05-21T20:53:38.170Z,11.33
2019-05-21T20:56:08.464Z,8.68
2019-05-21T20:58:36.904Z,6.25
2019-05-21T21:01:06.256Z,6.53
2019-05-21T21:03:35.441Z,4.30
2019-05-21T21:06:04.970Z,4.50
2019-05-21T21:08:34.087Z,6.47
2019-05-21T21:11:03.480Z,5.42
2019-05-21T21:13:32.862Z,6.13
2019-05-21T21:16:02.999Z,6.20
2019-05-21T21:18:31.890Z,6.43
2019-05-21T21:21:00.493Z,6.30
2019-05-21T21:23:30.131Z,7.03
2019-05-21T21:25:59.098Z,6.43
2019-05-21T21:28:27.691Z,5.77
2019-05-21T21:30:57.475Z,4.95
2019-05-21T21:33:25.911Z,4.40
2019-05-21T21:35:54.348Z,5.53
2019-05-21T21:38:24.576Z,3.43
2019-05-21T21:40:53.314Z,4.25
2019-05-21T21:43:21.748Z,3.97
2019-05-21T21:45:50.442Z,4.73
2019-05-21T21:48:19.154Z,4.60
2019-05-21T21:50:49.065Z,5.50
2019-05-21T21:53:17.659Z,6.03
2019-05-21T21:55:46.113Z,5.70
2019-05-21T21:58:14.543Z,5.87
2019-05-21T22:00:59.668Z,7.13
2019-05-21T22:03:31.480Z,7.87
2019-05-21T22:06:01.603Z,10.20
2019-05-21T22:08:31.353Z,12.33
2019-05-21T22:11:00.246Z,13.03
2019-05-21T22:13:29.132Z,16.03
2019-05-21T22:15:58.209Z,14.63
2019-05-21T22:18:27.484Z,18.03
2019-05-21T22:20:56.386Z,17.57
2019-05-21T22:23:25.095Z,17.57
2019-05-21T22:25:53.528Z,20.50
2019-05-21T22:28:22.232Z,18.53
2019-05-21T22:30:50.808Z,18.43
2019-05-21T22:33:20.194Z,20.83
2019-05-21T22:35:48.744Z,20.67
2019-05-21T22:38:17.171Z,21.13
2019-05-21T22:40:45.608Z,22.73
2019-05-21T22:43:14.340Z,17.80
2019-05-21T22:45:42.791Z,22.20
2019-05-21T22:48:11.241Z,21.47
2019-05-21T22:50:39.810Z,24.13
2019-05-21T22:53:08.246Z,24.63
2019-05-21T22:55:36.691Z,24.13
2019-05-21T22:58:05.853Z,27.00
2019-05-21T23:00:34.663Z,27.03
2019-05-21T23:03:03.659Z,25.60
2019-05-21T23:05:32.111Z,29.90
2019-05-21T23:08:01.711Z,30.50
2019-05-21T23:10:30.327Z,31.20
2019-05-21T23:12:58.757Z,31.07
2019-05-21T23:15:27.435Z,33.20
2019-05-21T23:17:56.639Z,31.70
2019-05-21T23:20:27.731Z,37.40
2019-05-21T23:22:59.390Z,30.97
2019-05-21T23:25:28.374Z,31.13
2019-05-21T23:27:56.798Z,32.40
2019-05-21T23:30:25.245Z,30.20
2019-05-21T23:32:53.694Z,34.50
2019-05-21T23:35:22.516Z,27.67
2019-05-21T23:37:51.762Z,34.40
2019-05-21T23:40:22.249Z,34.13
2019-05-21T23:42:51.139Z,31.33
2019-05-21T23:45:20.517Z,31.30
2019-05-21T23:47:49.212Z,28.33
2019-05-21T23:50:19.564Z,26.37
2019-05-21T23:52:48.179Z,29.37
2019-05-21T23:55:16.942Z,25.17
2019-05-21T23:57:45.359Z,24.17
